< < Back
Terminal Aerodrome Forecast


Current Version              Previous Versions:   1  2  3  4  5  6  7  8  9  

Terminal Aerodrome Forecast

910
FTUS42 KFFC 042320
TAFMCN
TAF
KMCN 042320Z 0500/0524 25005KT P6SM SCT070
     FM050100 00000KT P6SM FEW080 FEW250
      TEMPO 0509/0511 6SM BR
     FM051500 24007KT P6SM SCT050 SCT250 PROB30 0520/0523 6SM TSRA
      BKN050CB=



Latest METAR

241
SAUS80 KWBC 050200 RRB
MTRMCN
METAR KMCN 050153Z AUTO 20006G15KT 10SM CLR 29/21 A3000 RMK AO2 SLP151
T02890211 TSNO


USA.gov is the U.S. government's official web portal to all federal, state and local government web resources and services.